createdAt,value
2022-07-31T00:00:24.523Z,97264.78
2022-07-31T00:02:52.552Z,97266.56
2022-07-31T00:05:20.484Z,97266.28
2022-07-31T00:07:48.445Z,97269.03
2022-07-31T00:10:18.192Z,97260.56
2022-07-31T00:12:46.197Z,97259.00
2022-07-31T00:15:14.300Z,97260.78
2022-07-31T00:17:43.481Z,97268.25
2022-07-31T00:20:14.336Z,97263.47
2022-07-31T00:22:43.135Z,97267.50
2022-07-31T00:25:12.123Z,97271.56
2022-07-31T00:27:42.046Z,97268.88
2022-07-31T00:30:12.931Z,97266.41
2022-07-31T00:32:41.944Z,97269.09
2022-07-31T00:35:12.425Z,97257.88
2022-07-31T00:37:41.766Z,97254.69
2022-07-31T00:40:13.221Z,97254.97
2022-07-31T00:42:42.596Z,97247.50
2022-07-31T00:45:13.570Z,97250.09
2022-07-31T00:47:42.785Z,97245.78
2022-07-31T00:50:11.843Z,97252.78
2022-07-31T00:52:40.076Z,97249.84
2022-07-31T00:55:09.312Z,97247.44
2022-07-31T00:57:38.584Z,97247.63
2022-07-31T01:00:09.802Z,97242.34
2022-07-31T01:02:38.440Z,97251.38
2022-07-31T01:05:14.913Z,97246.75
2022-07-31T01:07:42.721Z,97248.56
2022-07-31T01:10:15.152Z,97243.75
2022-07-31T01:12:53.991Z,97244.44
2022-07-31T01:15:24.620Z,97250.25
2022-07-31T01:17:54.083Z,97249.00
2022-07-31T01:20:22.501Z,97251.88
2022-07-31T01:23:04.025Z,97246.88
2022-07-31T01:25:55.223Z,97248.59
2022-07-31T01:28:54.865Z,97240.56
2022-07-31T01:31:35.203Z,97248.81
2022-07-31T01:34:09.830Z,97250.03
2022-07-31T01:36:40.790Z,97241.97
2022-07-31T01:39:09.137Z,97245.66
2022-07-31T01:41:44.260Z,97244.53
2022-07-31T01:44:18.081Z,97242.91
2022-07-31T01:46:48.770Z,97246.72
2022-07-31T01:49:20.037Z,97242.28
2022-07-31T01:51:49.813Z,97243.28
2022-07-31T01:54:21.212Z,97237.34
2022-07-31T01:56:51.063Z,97239.44
2022-07-31T01:59:22.725Z,97239.44
2022-07-31T02:02:10.129Z,97236.75
2022-07-31T02:04:39.915Z,97242.69
2022-07-31T02:07:08.207Z,97234.38
2022-07-31T02:09:58.039Z,97238.47
2022-07-31T02:12:33.491Z,97230.28
2022-07-31T02:15:07.659Z,97221.38
2022-07-31T02:17:38.573Z,97220.22
2022-07-31T02:20:26.976Z,97217.59
2022-07-31T02:22:57.164Z,97211.69
2022-07-31T02:25:25.688Z,97212.84
2022-07-31T02:27:58.526Z,97209.16
2022-07-31T02:30:38.318Z,97209.44
2022-07-31T02:33:13.739Z,97209.03
2022-07-31T02:35:45.615Z,97205.91
2022-07-31T02:38:23.287Z,97204.69
2022-07-31T02:40:57.405Z,97203.53
2022-07-31T02:43:26.806Z,97198.75
2022-07-31T02:45:59.403Z,97205.56
2022-07-31T02:48:28.528Z,97204.16
2022-07-31T02:51:00.808Z,97205.69
2022-07-31T02:53:30.699Z,97195.25
2022-07-31T02:56:04.513Z,97203.44
2022-07-31T02:58:34.860Z,97202.44
2022-07-31T03:01:06.190Z,97197.19
2022-07-31T03:03:35.662Z,97187.59
2022-07-31T03:06:03.731Z,97190.84
2022-07-31T03:08:31.749Z,97188.03
2022-07-31T03:11:04.745Z,97190.47
2022-07-31T03:13:35.947Z,97194.78
2022-07-31T03:16:06.881Z,97193.75
2022-07-31T03:18:35.594Z,97191.28
2022-07-31T03:21:03.656Z,97199.25
2022-07-31T03:23:36.428Z,97192.69
2022-07-31T03:26:10.252Z,97191.28
2022-07-31T03:28:38.223Z,97188.78
2022-07-31T03:31:08.828Z,97192.00
2022-07-31T03:33:38.951Z,97191.69
2022-07-31T03:36:09.527Z,97191.50
2022-07-31T03:38:41.467Z,97187.88
2022-07-31T03:41:23.303Z,97187.44
2022-07-31T03:43:51.893Z,97195.88
2022-07-31T03:46:25.101Z,97196.25
2022-07-31T03:48:53.500Z,97204.44
2022-07-31T03:51:23.281Z,97192.63
2022-07-31T03:53:52.980Z,97190.22
2022-07-31T03:56:49.490Z,97189.22
2022-07-31T03:59:19.790Z,97198.41
2022-07-31T04:01:57.420Z,97192.09
2022-07-31T04:04:49.379Z,97194.41
2022-07-31T04:07:17.842Z,97193.34
2022-07-31T04:09:45.846Z,97190.34
2022-07-31T04:12:16.090Z,97200.50
2022-07-31T04:14:44.339Z,97195.44
2022-07-31T04:17:14.962Z,97192.03
2022-07-31T04:19:43.045Z,97190.66
2022-07-31T04:22:11.153Z,97198.19
2022-07-31T04:24:40.139Z,97194.75
2022-07-31T04:27:48.576Z,97191.00
2022-07-31T04:30:18.013Z,97192.00
2022-07-31T04:32:49.052Z,97193.31
2022-07-31T04:35:22.652Z,97188.78
2022-07-31T04:37:50.727Z,97192.38
2022-07-31T04:40:20.188Z,97186.69
2022-07-31T04:42:48.127Z,97187.53
2022-07-31T04:45:16.158Z,97180.81
2022-07-31T04:47:44.156Z,97192.81
2022-07-31T04:50:13.576Z,97192.25
2022-07-31T04:52:56.146Z,97193.19
2022-07-31T04:55:25.575Z,97193.69
2022-07-31T04:57:53.889Z,97186.94
2022-07-31T05:00:22.160Z,97183.63
2022-07-31T05:02:50.334Z,97186.13
2022-07-31T05:05:20.288Z,97174.78
2022-07-31T05:07:48.786Z,97184.06
2022-07-31T05:10:33.845Z,97202.78
2022-07-31T05:13:02.744Z,97199.13
2022-07-31T05:15:32.528Z,97196.88
2022-07-31T05:18:00.567Z,97194.03
2022-07-31T05:20:48.683Z,97193.53
2022-07-31T05:23:31.833Z,97189.75
2022-07-31T05:26:08.343Z,97190.19
2022-07-31T05:28:36.645Z,97200.41
2022-07-31T05:31:04.566Z,97206.53
2022-07-31T05:33:33.877Z,97200.91
2022-07-31T05:36:05.967Z,97193.63
2022-07-31T05:38:34.216Z,97200.53
2022-07-31T05:41:20.897Z,97202.06
2022-07-31T05:44:08.158Z,97203.75
2022-07-31T05:46:40.246Z,97207.78
2022-07-31T05:49:08.769Z,97211.47
2022-07-31T05:51:39.183Z,97205.72
2022-07-31T05:54:07.187Z,97209.28
2022-07-31T05:56:53.895Z,97206.66
2022-07-31T05:59:27.811Z,97206.19
2022-07-31T06:01:55.864Z,97213.47
2022-07-31T06:04:24.968Z,97205.19
2022-07-31T06:06:54.302Z,97213.25
2022-07-31T06:09:22.312Z,97211.00
2022-07-31T06:11:52.083Z,97209.47
2022-07-31T06:14:19.980Z,97212.66
2022-07-31T06:17:20.202Z,97220.13
2022-07-31T06:19:49.362Z,97216.19
2022-07-31T06:22:18.659Z,97214.31
2022-07-31T06:24:47.056Z,97215.84
2022-07-31T06:27:32.410Z,97209.84
2022-07-31T06:30:01.662Z,97207.59
2022-07-31T06:32:32.180Z,97215.03
2022-07-31T06:35:00.975Z,97209.59
2022-07-31T06:37:33.283Z,97211.09
2022-07-31T06:40:01.346Z,97205.03
2022-07-31T06:42:45.225Z,97208.00
2022-07-31T06:45:51.611Z,97211.09
2022-07-31T06:48:38.296Z,97219.09
2022-07-31T06:54:00.349Z,97212.88
2022-07-31T06:56:28.519Z,97215.84
2022-07-31T06:58:57.132Z,97212.34
2022-07-31T07:01:25.180Z,97202.06
2022-07-31T07:03:53.537Z,97195.81
2022-07-31T07:06:21.659Z,97184.91
2022-07-31T07:08:50.304Z,97195.13
2022-07-31T07:11:21.711Z,97192.28
2022-07-31T07:13:49.896Z,97191.44
2022-07-31T07:16:19.970Z,97192.50
2022-07-31T07:18:48.508Z,97185.16
2022-07-31T07:21:19.422Z,97180.88
2022-07-31T07:23:47.704Z,97184.91
2022-07-31T07:26:29.213Z,97188.06
2022-07-31T07:28:57.658Z,97179.47
2022-07-31T07:31:26.499Z,97178.34
2022-07-31T07:33:57.803Z,97181.47
2022-07-31T07:36:27.286Z,97177.72
2022-07-31T07:39:02.273Z,97172.91
2022-07-31T07:41:33.775Z,97181.50
2022-07-31T07:44:02.465Z,97174.03
2022-07-31T07:46:31.599Z,97177.25
2022-07-31T07:49:02.699Z,97175.16
2022-07-31T07:51:37.036Z,97173.13
2022-07-31T07:54:25.164Z,97169.38
2022-07-31T07:57:17.848Z,97162.22
2022-07-31T07:59:55.379Z,97166.19
2022-07-31T08:02:42.760Z,97168.47
2022-07-31T08:05:11.543Z,97166.38
2022-07-31T08:07:43.025Z,97159.09
2022-07-31T08:10:41.294Z,97153.03
2022-07-31T08:13:14.673Z,97151.81
2022-07-31T08:16:03.190Z,97157.72
2022-07-31T08:18:34.588Z,97158.78
2022-07-31T08:21:03.330Z,97153.28
2022-07-31T08:23:31.324Z,97154.13
2022-07-31T08:25:59.460Z,97157.38
2022-07-31T08:28:29.638Z,97161.03
2022-07-31T08:30:57.866Z,97166.78
2022-07-31T08:33:26.626Z,97164.53
2022-07-31T08:35:57.054Z,97156.97
2022-07-31T08:38:26.028Z,97142.84
2022-07-31T08:41:14.228Z,97150.72
2022-07-31T08:44:02.930Z,97150.69
2022-07-31T08:46:34.137Z,97141.63
2022-07-31T08:49:04.449Z,97137.50
2022-07-31T08:51:51.262Z,97133.94
2022-07-31T08:54:26.319Z,97132.28
2022-07-31T08:56:54.935Z,97137.00
2022-07-31T08:59:24.217Z,97132.59
2022-07-31T09:01:53.138Z,97132.41
2022-07-31T09:04:21.299Z,97139.34
2022-07-31T09:06:49.301Z,97126.34
2022-07-31T09:09:18.683Z,97123.38
2022-07-31T09:11:48.576Z,97118.94
2022-07-31T09:14:36.729Z,97117.00
2022-07-31T09:17:09.464Z,97109.91
2022-07-31T09:19:54.001Z,97134.56
2022-07-31T09:22:31.672Z,97130.59
2022-07-31T09:25:12.438Z,97115.72
2022-07-31T09:27:41.579Z,97112.63
2022-07-31T09:30:12.380Z,97118.88
2022-07-31T09:33:16.641Z,97110.50
2022-07-31T09:36:04.797Z,97114.69
2022-07-31T09:38:37.357Z,97119.00
2022-07-31T09:41:56.546Z,97101.47
2022-07-31T09:44:25.365Z,97103.22
2022-07-31T09:46:55.978Z,97105.97
2022-07-31T09:49:32.515Z,97097.50
2022-07-31T09:52:01.779Z,97097.81
2022-07-31T09:54:32.093Z,97082.00
2022-07-31T09:57:11.030Z,97090.44
2022-07-31T09:59:40.693Z,97090.69
2022-07-31T10:02:13.349Z,97097.06
2022-07-31T10:04:42.585Z,97094.63
2022-07-31T10:07:32.585Z,97106.94
2022-07-31T10:10:25.293Z,97106.91
2022-07-31T10:12:57.664Z,97097.69
2022-07-31T10:15:27.519Z,97090.84
2022-07-31T10:18:18.716Z,97097.41
2022-07-31T10:21:17.578Z,97097.31
2022-07-31T10:23:55.712Z,97087.16
2022-07-31T10:26:39.154Z,97090.44
2022-07-31T10:29:12.306Z,97098.22
2022-07-31T10:31:41.018Z,97085.94
2022-07-31T10:34:13.575Z,97092.69
2022-07-31T10:37:11.189Z,97083.69
2022-07-31T10:40:10.546Z,97089.72
2022-07-31T10:42:47.217Z,97087.22
2022-07-31T10:45:17.805Z,97074.06
2022-07-31T10:47:59.949Z,97084.03
2022-07-31T10:51:04.315Z,97080.16
2022-07-31T10:53:58.720Z,97080.91
2022-07-31T10:56:59.135Z,97085.53
2022-07-31T10:59:44.893Z,97072.16
2022-07-31T11:02:16.009Z,97080.47
2022-07-31T11:04:51.047Z,97070.56
2022-07-31T11:08:03.888Z,97073.53
2022-07-31T11:10:53.434Z,97071.69
2022-07-31T11:13:49.800Z,97069.91
2022-07-31T11:16:36.369Z,97074.31
2022-07-31T11:19:24.756Z,97067.66
2022-07-31T11:21:57.352Z,97067.31
2022-07-31T11:24:26.720Z,97057.63
2022-07-31T11:26:57.346Z,97055.94
2022-07-31T11:30:01.031Z,97063.91
2022-07-31T11:32:25.234Z,97063.81
2022-07-31T11:34:56.783Z,97050.84
2022-07-31T11:37:30.683Z,97044.16
2022-07-31T11:40:16.299Z,97046.03
2022-07-31T11:42:46.435Z,97056.78
2022-07-31T11:45:18.830Z,97050.06
2022-07-31T11:48:11.096Z,97054.81
2022-07-31T11:50:41.293Z,97049.84
2022-07-31T11:53:09.293Z,97041.91
2022-07-31T11:55:48.698Z,97041.53
2022-07-31T11:58:17.931Z,97035.94
2022-07-31T12:00:53.494Z,97036.75
2022-07-31T12:03:23.417Z,97044.34
2022-07-31T12:05:53.416Z,97036.94
2022-07-31T12:08:22.775Z,97042.41
2022-07-31T12:10:53.639Z,97039.03
2022-07-31T12:13:23.143Z,97031.78
2022-07-31T12:15:59.917Z,97028.56
2022-07-31T12:18:29.810Z,97032.50
2022-07-31T12:21:01.526Z,97034.28
2022-07-31T12:23:41.826Z,97033.78
2022-07-31T12:26:17.169Z,97033.25
2022-07-31T12:28:45.180Z,97030.38
2022-07-31T12:31:13.685Z,97025.28
2022-07-31T12:33:44.465Z,97047.31
2022-07-31T12:36:15.347Z,97045.38
2022-07-31T12:38:47.969Z,97044.09
2022-07-31T12:41:18.367Z,97042.00
2022-07-31T12:43:51.050Z,97042.03
2022-07-31T12:46:36.704Z,97043.72
2022-07-31T12:49:05.445Z,97044.69
2022-07-31T12:51:45.330Z,97046.28
2022-07-31T12:54:16.521Z,97044.47
2022-07-31T12:56:46.916Z,97039.00
2022-07-31T12:59:15.329Z,97040.59
2022-07-31T13:01:43.347Z,97041.66
2022-07-31T13:04:19.223Z,97035.69
2022-07-31T13:06:51.365Z,97040.72
2022-07-31T13:09:20.430Z,97038.75
2022-07-31T13:11:54.500Z,97032.72
2022-07-31T13:14:25.697Z,97024.31
2022-07-31T13:16:55.278Z,97022.94
2022-07-31T13:19:23.293Z,97002.97
2022-07-31T13:21:51.406Z,97006.44
2022-07-31T13:24:20.197Z,97002.25
2022-07-31T13:26:50.253Z,97008.31
2022-07-31T13:29:18.919Z,97011.88
2022-07-31T13:31:47.952Z,97011.94
2022-07-31T13:34:17.033Z,97017.00
2022-07-31T13:36:44.942Z,97013.03
2022-07-31T13:39:13.182Z,97012.78
2022-07-31T13:41:41.811Z,97015.19
2022-07-31T13:44:11.297Z,97016.63
2022-07-31T13:46:39.210Z,97013.38
2022-07-31T13:49:10.372Z,97015.84
2022-07-31T13:51:39.614Z,97014.03
2022-07-31T13:54:07.743Z,97016.81
2022-07-31T13:56:41.881Z,97010.75
2022-07-31T13:59:14.050Z,97010.13
2022-07-31T14:02:03.444Z,97016.47
2022-07-31T14:04:32.907Z,97006.06
2022-07-31T14:07:07.638Z,97011.31
2022-07-31T14:09:37.631Z,97011.06
2022-07-31T14:12:06.496Z,97019.75
2022-07-31T14:14:36.023Z,97023.47
2022-07-31T14:17:04.113Z,97020.28
2022-07-31T14:19:44.059Z,97017.47
2022-07-31T14:22:14.163Z,97018.47
2022-07-31T14:24:49.408Z,97013.56
2022-07-31T14:27:19.885Z,97015.44
2022-07-31T14:29:49.439Z,97009.44
2022-07-31T14:32:19.431Z,97006.03
2022-07-31T14:34:48.595Z,97005.88
2022-07-31T14:37:16.578Z,97004.81
2022-07-31T14:39:44.767Z,97006.22
2022-07-31T14:42:12.859Z,97011.00
2022-07-31T14:44:42.498Z,97005.28
2022-07-31T14:47:12.814Z,97012.78
2022-07-31T14:50:06.851Z,97010.69
2022-07-31T14:52:30.275Z,97011.41
2022-07-31T14:54:59.037Z,97011.41
2022-07-31T14:57:27.164Z,97005.78
2022-07-31T14:59:55.609Z,97006.59
2022-07-31T15:02:25.020Z,97010.25
2022-07-31T15:04:53.622Z,97004.47
2022-07-31T15:07:42.367Z,97013.03
2022-07-31T15:10:12.175Z,96999.69
2022-07-31T15:12:40.265Z,97002.38
2022-07-31T15:15:09.548Z,97004.25
2022-07-31T15:17:39.159Z,96994.50
2022-07-31T15:20:08.331Z,96982.03
2022-07-31T15:22:36.713Z,96978.47
2022-07-31T15:25:05.047Z,96976.19
2022-07-31T15:27:33.095Z,96978.97
2022-07-31T15:30:06.765Z,96976.16
2022-07-31T15:32:37.401Z,96976.63
2022-07-31T15:35:09.268Z,96962.66
2022-07-31T15:37:38.306Z,96963.22
2022-07-31T15:40:08.707Z,96970.72
2022-07-31T15:42:40.824Z,96961.56
2022-07-31T15:45:10.468Z,96957.38
2022-07-31T15:47:39.384Z,96962.75
2022-07-31T15:50:11.405Z,96963.59
2022-07-31T15:52:39.605Z,96957.75
2022-07-31T15:55:09.048Z,96959.25
2022-07-31T15:57:37.687Z,96954.75
2022-07-31T16:00:07.635Z,96948.56
2022-07-31T16:02:39.464Z,96961.28
2022-07-31T16:05:21.643Z,96955.41
2022-07-31T16:08:30.275Z,96945.56
2022-07-31T16:10:52.611Z,96951.59
2022-07-31T16:13:22.088Z,96939.78
2022-07-31T16:15:50.007Z,96943.16
2022-07-31T16:18:19.785Z,96940.59
2022-07-31T16:20:49.267Z,96937.09
2022-07-31T16:23:17.513Z,96940.88
2022-07-31T16:25:45.549Z,96953.59
2022-07-31T16:28:15.162Z,96954.63
2022-07-31T16:30:43.819Z,96949.59
2022-07-31T16:33:12.663Z,96953.66
2022-07-31T16:35:41.336Z,96947.09
2022-07-31T16:38:10.624Z,96950.22
2022-07-31T16:40:38.672Z,96946.50
2022-07-31T16:43:48.048Z,96953.97
2022-07-31T16:45:56.940Z,96946.50
2022-07-31T16:48:24.880Z,96944.00
2022-07-31T16:50:54.448Z,96945.91
2022-07-31T16:54:09.915Z,96944.78
2022-07-31T16:56:12.715Z,96936.78
2022-07-31T16:58:40.898Z,96936.22
2022-07-31T17:01:53.941Z,96941.84
2022-07-31T17:04:01.228Z,96937.97
2022-07-31T17:06:36.074Z,96931.16
2022-07-31T17:09:17.171Z,96935.38
2022-07-31T17:11:48.302Z,96942.00
2022-07-31T17:14:16.824Z,96937.38
2022-07-31T17:16:47.621Z,96945.56
2022-07-31T17:19:16.751Z,96943.06
2022-07-31T17:22:04.833Z,96950.00
2022-07-31T17:24:34.786Z,96938.56
2022-07-31T17:27:04.738Z,96947.44
2022-07-31T17:29:33.052Z,96935.31
2022-07-31T17:32:02.484Z,96945.13
2022-07-31T17:34:31.460Z,96941.06
2022-07-31T17:36:59.491Z,96943.88
2022-07-31T17:39:30.803Z,96942.34
2022-07-31T17:42:00.558Z,96944.94
2022-07-31T17:44:28.627Z,96951.09
2022-07-31T17:47:03.657Z,96949.81
2022-07-31T17:49:33.570Z,96955.72
2022-07-31T17:52:01.445Z,96953.47
2022-07-31T17:54:30.345Z,96945.75
2022-07-31T17:56:58.407Z,96949.28
2022-07-31T17:59:28.103Z,96955.50
2022-07-31T18:02:00.086Z,96964.75
2022-07-31T18:04:28.900Z,96959.75
2022-07-31T18:06:56.753Z,96968.59
2022-07-31T18:09:25.197Z,96965.56
2022-07-31T18:11:54.354Z,96966.53
2022-07-31T18:14:24.573Z,96965.63
2022-07-31T18:16:54.879Z,96962.28
2022-07-31T18:19:23.175Z,96961.44
2022-07-31T18:21:52.133Z,96967.66
2022-07-31T18:24:20.656Z,96968.50
2022-07-31T18:26:49.341Z,96982.34
2022-07-31T18:29:17.758Z,96979.53
2022-07-31T18:31:46.839Z,96981.50
2022-07-31T18:34:17.157Z,96982.16
2022-07-31T18:36:45.522Z,96975.66
2022-07-31T18:39:13.498Z,96982.00
2022-07-31T18:41:46.899Z,96983.81
2022-07-31T18:44:16.531Z,96983.88
2022-07-31T18:46:44.448Z,96976.25
2022-07-31T18:50:58.462Z,96986.00
2022-07-31T18:52:03.434Z,96986.00
2022-07-31T18:54:31.836Z,96985.47
2022-07-31T18:56:59.725Z,96980.03
2022-07-31T18:59:28.004Z,96985.56
2022-07-31T19:01:56.757Z,96982.47
2022-07-31T19:04:24.884Z,96991.44
2022-07-31T19:06:54.488Z,96988.59
2022-07-31T19:09:25.310Z,97001.06
2022-07-31T19:12:02.641Z,97002.97
2022-07-31T19:14:35.612Z,97003.19
2022-07-31T19:17:03.964Z,97003.91
2022-07-31T19:19:45.001Z,97008.59
2022-07-31T19:22:21.040Z,97004.16
2022-07-31T19:24:50.824Z,97003.84
2022-07-31T19:27:19.636Z,97011.28
2022-07-31T19:29:47.502Z,97016.19
2022-07-31T19:32:15.981Z,97005.94
2022-07-31T19:34:47.842Z,97010.28
2022-07-31T19:37:18.225Z,97015.44
2022-07-31T19:39:46.705Z,97009.78
2022-07-31T19:42:16.054Z,97013.34
2022-07-31T19:44:43.891Z,97015.06
2022-07-31T19:47:11.724Z,97011.03
2022-07-31T19:49:41.261Z,97012.50
2022-07-31T19:52:09.360Z,97014.34
2022-07-31T19:54:37.576Z,97009.53
2022-07-31T19:57:05.669Z,97005.88
2022-07-31T19:59:34.805Z,97003.25
2022-07-31T20:02:02.883Z,97004.97
2022-07-31T20:04:30.938Z,97000.41
2022-07-31T20:06:58.952Z,97009.91
2022-07-31T20:09:26.825Z,97005.22
2022-07-31T20:11:54.648Z,97010.09
2022-07-31T20:14:22.573Z,97007.53
2022-07-31T20:16:51.704Z,97001.44
2022-07-31T20:19:19.565Z,97004.91
2022-07-31T20:21:47.385Z,96995.56
2022-07-31T20:24:17.696Z,96996.41
2022-07-31T20:26:45.760Z,97000.47
2022-07-31T20:29:13.584Z,96996.13
2022-07-31T20:31:41.406Z,97004.03
2022-07-31T20:34:12.474Z,96995.94
2022-07-31T20:36:40.724Z,97000.31
2022-07-31T20:39:08.683Z,96996.28
2022-07-31T20:41:36.994Z,96990.16
2022-07-31T20:44:05.409Z,97000.06
2022-07-31T20:46:33.311Z,97001.88
2022-07-31T20:49:01.443Z,96995.06
2022-07-31T20:51:30.854Z,96994.75
2022-07-31T20:53:58.751Z,96984.00
2022-07-31T20:56:26.580Z,96988.47
2022-07-31T20:58:54.908Z,96982.78
2022-07-31T21:01:23.106Z,96982.31
2022-07-31T21:03:51.217Z,96985.06
2022-07-31T21:06:20.960Z,96979.19
2022-07-31T21:08:50.477Z,96978.44
2022-07-31T21:11:20.166Z,96975.47
2022-07-31T21:13:48.034Z,96981.47
2022-07-31T21:16:16.442Z,96972.84
2022-07-31T21:18:44.393Z,96975.13
2022-07-31T21:21:12.356Z,96963.13
2022-07-31T21:23:40.224Z,96975.38
2022-07-31T21:26:10.058Z,96960.91
2022-07-31T21:28:39.563Z,96957.56
2022-07-31T21:31:07.904Z,96963.72
2022-07-31T21:33:37.445Z,96964.53
2022-07-31T21:36:06.864Z,96973.22
2022-07-31T21:38:36.605Z,96971.84
2022-07-31T21:41:04.828Z,96970.84
2022-07-31T21:43:58.990Z,96970.00
2022-07-31T21:46:23.274Z,96964.22
2022-07-31T21:48:52.904Z,96970.38
2022-07-31T21:51:21.193Z,96969.56
2022-07-31T21:53:49.108Z,96971.19
2022-07-31T21:56:17.172Z,96959.94
2022-07-31T21:58:46.380Z,96972.66
2022-07-31T22:01:15.344Z,96964.72
2022-07-31T22:03:43.552Z,96968.59
2022-07-31T22:06:28.953Z,96959.41
2022-07-31T22:08:56.832Z,96969.28
2022-07-31T22:11:24.720Z,96972.44
2022-07-31T22:13:54.016Z,96967.59
2022-07-31T22:16:21.928Z,96963.28
2022-07-31T22:18:51.369Z,96967.66
2022-07-31T22:21:20.099Z,96970.66
2022-07-31T22:23:48.588Z,96964.88
2022-07-31T22:26:16.762Z,96975.31
2022-07-31T22:28:45.359Z,96968.19
2022-07-31T22:31:15.066Z,96971.41
2022-07-31T22:33:44.082Z,96976.28
2022-07-31T22:36:13.592Z,96972.84
2022-07-31T22:38:45.299Z,96968.00
2022-07-31T22:41:14.104Z,96965.72
2022-07-31T22:44:12.552Z,96970.56
2022-07-31T22:46:33.179Z,96964.06
2022-07-31T22:49:02.751Z,96963.22
2022-07-31T22:51:32.092Z,96961.31
2022-07-31T22:54:01.872Z,96954.91
2022-07-31T22:56:29.821Z,96959.13
2022-07-31T22:58:57.749Z,96958.66
2022-07-31T23:01:25.638Z,96956.50
2022-07-31T23:03:54.823Z,96957.34
2022-07-31T23:06:30.924Z,96957.44
2022-07-31T23:08:59.884Z,96964.09
2022-07-31T23:11:27.769Z,96951.81
2022-07-31T23:13:55.772Z,96959.16
2022-07-31T23:16:23.718Z,96953.06
2022-07-31T23:18:52.246Z,96962.34
2022-07-31T23:21:22.217Z,96949.41
2022-07-31T23:23:50.286Z,96954.69
2022-07-31T23:26:19.067Z,96954.97
2022-07-31T23:28:47.532Z,96956.88
2022-07-31T23:31:16.039Z,96951.75
2022-07-31T23:33:45.172Z,96956.34
2022-07-31T23:36:14.244Z,96956.91
2022-07-31T23:38:43.832Z,96955.72
2022-07-31T23:41:12.714Z,96959.78
2022-07-31T23:43:39.920Z,96952.59
2022-07-31T23:46:07.841Z,96955.34
2022-07-31T23:48:36.002Z,96952.13
2022-07-31T23:51:04.226Z,96956.63
2022-07-31T23:53:32.099Z,96951.53
2022-07-31T23:56:01.380Z,96954.56
2022-07-31T23:58:29.293Z,96952.38
